Time;durP1;ratioP1;P1;durP2;ratioP2;P2;SDS_P1;SDS_P2;PMS_P1;PMS_P2;Temp;Humidity;BMP_temperature;BMP_pressure;BME280_temperature;BME280_humidity;BME280_pressure;Samples;Min_cycle;Max_cycle;Signal;HPM_P1;HPM_P2
2023/12/31 00:02:19;;;;;;;17.50;8.20;;;0.80;99.90;;;;;;4972012;28;20141;-61
2023/12/31 00:04:46;;;;;;;20.08;9.15;;;0.90;99.90;;;;;;4968543;28;20050;-62
2023/12/31 00:07:12;;;;;;;16.38;9.07;;;0.90;99.90;;;;;;4962122;28;20575;-62
2023/12/31 00:09:39;;;;;;;20.08;8.73;;;0.90;99.90;;;;;;4966427;28;20050;-62
2023/12/31 00:12:06;;;;;;;13.70;6.50;;;0.80;99.90;;;;;;4967474;28;20035;-62
2023/12/31 00:14:33;;;;;;;18.35;8.20;;;0.90;99.90;;;;;;4970631;28;20075;-61
2023/12/31 00:17:00;;;;;;;19.80;8.70;;;0.80;99.90;;;;;;4961486;28;20122;-61
2023/12/31 00:19:26;;;;;;;23.08;8.30;;;0.80;99.90;;;;;;4962706;28;20058;-62
2023/12/31 00:21:53;;;;;;;17.98;8.50;;;0.80;99.90;;;;;;4971151;28;20043;-61
2023/12/31 00:24:20;;;;;;;19.65;9.15;;;0.80;99.90;;;;;;4968440;28;20047;-62
2023/12/31 00:26:47;;;;;;;16.85;8.45;;;0.90;99.90;;;;;;4964122;28;20046;-62
2023/12/31 00:29:14;;;;;;;17.27;8.82;;;0.90;99.90;;;;;;4968618;28;20038;-62
2023/12/31 00:31:41;;;;;;;19.52;8.95;;;0.90;99.90;;;;;;4947676;29;20055;-62
2023/12/31 00:34:08;;;;;;;22.02;9.82;;;0.90;99.90;;;;;;4967318;28;20061;-62
2023/12/31 00:36:36;;;;;;;18.05;8.70;;;0.90;99.90;;;;;;4958630;28;20058;-62
2023/12/31 00:39:03;;;;;;;20.15;8.88;;;0.90;99.90;;;;;;4951360;28;20055;-62
2023/12/31 00:41:31;;;;;;;18.27;8.13;;;1.00;99.90;;;;;;4960009;28;20043;-62
2023/12/31 00:43:58;;;;;;;16.38;8.48;;;1.00;99.90;;;;;;4967574;28;20054;-61
2023/12/31 00:46:25;;;;;;;17.75;8.30;;;1.00;99.90;;;;;;4971990;28;20193;-62
2023/12/31 00:48:51;;;;;;;21.98;8.93;;;1.00;99.90;;;;;;4966753;28;20054;-61
2023/12/31 00:51:20;;;;;;;17.05;8.10;;;0.90;99.90;;;;;;4969495;28;20050;-62
2023/12/31 00:53:46;;;;;;;17.13;7.85;;;0.80;99.90;;;;;;4964002;28;20047;-61
2023/12/31 00:56:14;;;;;;;20.52;8.75;;;0.80;99.90;;;;;;4970594;28;20043;-62
2023/12/31 00:58:40;;;;;;;18.50;8.32;;;0.80;99.90;;;;;;4970669;28;20510;-62
2023/12/31 01:01:07;;;;;;;16.60;7.80;;;0.80;99.90;;;;;;4967588;28;20507;-62
2023/12/31 01:03:34;;;;;;;;;;;0.80;99.90;;;;;;4972573;28;20042;-62
2023/12/31 01:06:08;;;;;;;16.40;7.53;;;0.90;99.90;;;;;;4954638;28;20012;-61
2023/12/31 01:08:35;;;;;;;18.83;6.93;;;0.90;99.90;;;;;;4971771;28;20050;-61
2023/12/31 01:11:02;;;;;;;14.38;5.43;;;0.90;99.90;;;;;;4957456;28;20047;-59
2023/12/31 01:13:30;;;;;;;;;;;1.00;99.90;;;;;;4973788;28;20444;-61
2023/12/31 01:15:57;;;;;;;11.07;5.47;;;1.00;99.90;;;;;;4970416;28;19928;-60
2023/12/31 01:18:24;;;;;;;13.35;6.95;;;1.00;99.90;;;;;;4962877;28;20408;-61
2023/12/31 01:20:50;;;;;;;15.23;7.55;;;1.00;99.90;;;;;;4960995;28;20039;-62
2023/12/31 01:23:17;;;;;;;14.13;8.20;;;1.00;99.90;;;;;;4969542;28;20043;-61
2023/12/31 01:25:44;;;;;;;17.08;8.10;;;0.90;99.90;;;;;;4972064;28;20395;-61
2023/12/31 01:28:12;;;;;;;17.08;8.15;;;0.90;99.90;;;;;;4954022;28;20047;-60
2023/12/31 01:30:40;;;;;;;17.98;8.57;;;0.90;99.90;;;;;;4970809;28;20433;-62
2023/12/31 01:33:06;;;;;;;20.30;8.68;;;0.80;99.90;;;;;;4975203;28;20047;-60
2023/12/31 01:35:35;;;;;;;20.10;7.68;;;0.80;99.90;;;;;;4974353;28;20134;-62
2023/12/31 01:38:02;;;;;;;20.83;9.35;;;0.70;99.90;;;;;;4975523;28;20038;-60
2023/12/31 01:40:29;;;;;;;21.92;9.43;;;0.80;99.90;;;;;;4972439;28;20130;-62
2023/12/31 01:42:56;;;;;;;14.70;7.57;;;0.70;99.90;;;;;;4975300;28;20078;-62
2023/12/31 01:45:23;;;;;;;15.73;8.05;;;0.70;99.90;;;;;;4973887;28;20043;-62
2023/12/31 01:47:52;;;;;;;17.95;8.27;;;0.70;99.90;;;;;;4973168;28;20518;-61
2023/12/31 01:50:21;;;;;;;24.40;10.95;;;0.70;99.90;;;;;;4975524;28;20043;-61
2023/12/31 01:52:52;;;;;;;17.80;8.10;;;0.60;99.90;;;;;;4974214;28;20562;-62
2023/12/31 01:55:19;;;;;;;17.30;7.90;;;0.60;99.90;;;;;;4960592;28;20508;-62
2023/12/31 01:57:48;;;;;;;17.38;8.55;;;0.60;99.90;;;;;;4966389;28;20039;-61
2023/12/31 02:00:16;;;;;;;;;;;0.60;99.90;;;;;;4958137;28;20038;-60
2023/12/31 02:02:46;;;;;;;14.13;6.80;;;0.60;99.90;;;;;;4963955;28;19929;-60
2023/12/31 02:05:14;;;;;;;15.02;8.00;;;0.50;99.90;;;;;;4975433;28;20496;-61
2023/12/31 02:07:41;;;;;;;15.05;7.32;;;0.50;99.90;;;;;;4957689;28;20547;-60
2023/12/31 02:10:09;;;;;;;11.70;6.78;;;0.40;99.90;;;;;;4973707;28;20066;-62
2023/12/31 02:12:37;;;;;;;16.52;7.80;;;0.50;99.90;;;;;;4973860;28;20043;-62
2023/12/31 02:15:04;;;;;;;15.27;7.40;;;0.40;99.90;;;;;;4972753;28;20035;-62
2023/12/31 02:17:31;;;;;;;16.98;7.25;;;0.40;99.90;;;;;;4975172;28;20408;-60
2023/12/31 02:19:58;;;;;;;;;;;0.40;99.90;;;;;;4971976;28;20045;-61
2023/12/31 02:22:26;;;;;;;19.80;6.95;;;0.40;99.90;;;;;;4974487;28;19922;-61
2023/12/31 02:24:58;;;;;;;13.73;6.97;;;0.40;99.90;;;;;;4974329;28;20633;-62
2023/12/31 02:27:25;;;;;;;18.65;7.75;;;0.40;99.90;;;;;;4949894;28;20093;-61
2023/12/31 02:29:59;;;;;;;12.73;6.22;;;0.40;99.90;;;;;;4974559;28;20042;-62
2023/12/31 02:32:26;;;;;;;14.65;7.22;;;0.40;99.90;;;;;;4969885;28;20035;-62
2023/12/31 02:34:53;;;;;;;17.95;7.43;;;0.30;99.90;;;;;;4956731;28;20043;-62
2023/12/31 02:37:19;;;;;;;17.08;7.35;;;0.30;99.90;;;;;;4959144;28;20087;-62
2023/12/31 02:39:46;;;;;;;17.23;7.95;;;0.30;99.90;;;;;;4972184;28;20122;-61
2023/12/31 02:42:13;;;;;;;17.95;8.27;;;0.20;99.90;;;;;;4956042;28;20137;-62
2023/12/31 02:44:40;;;;;;;18.23;7.97;;;0.20;99.90;;;;;;4973678;28;20046;-62
2023/12/31 02:47:08;;;;;;;15.93;7.63;;;0.20;99.90;;;;;;4974279;28;20377;-61
2023/12/31 02:49:36;;;;;;;16.13;7.70;;;0.20;99.90;;;;;;4972854;28;20042;-60
2023/12/31 02:52:03;;;;;;;15.00;7.35;;;0.10;99.90;;;;;;4972987;28;20051;-60
2023/12/31 02:54:30;;;;;;;21.70;7.78;;;0.10;99.90;;;;;;4957211;28;20051;-60
2023/12/31 02:56:57;;;;;;;13.15;7.13;;;0.20;99.90;;;;;;4973547;28;20392;-62
2023/12/31 02:59:25;;;;;;;14.02;6.97;;;0.20;99.90;;;;;;4972721;28;20559;-62
2023/12/31 03:01:53;;;;;;;13.60;6.57;;;0.40;99.90;;;;;;4968716;28;20050;-61
2023/12/31 03:04:20;;;;;;;13.50;6.90;;;0.50;99.90;;;;;;4973097;28;20519;-62
2023/12/31 03:06:51;;;;;;;17.02;6.60;;;0.50;99.90;;;;;;4974477;28;20074;-62
2023/12/31 03:09:19;;;;;;;11.68;6.82;;;0.50;99.90;;;;;;4972436;28;20504;-61
2023/12/31 03:11:45;;;;;;;17.05;7.75;;;0.50;99.90;;;;;;4952996;28;20155;-62
2023/12/31 03:14:14;;;;;;;10.43;5.88;;;0.50;99.90;;;;;;4959631;28;20054;-61
2023/12/31 03:16:47;;;;;;;15.27;7.20;;;0.40;99.90;;;;;;4973659;28;20070;-61
2023/12/31 03:19:15;;;;;;;13.02;7.13;;;0.40;99.90;;;;;;4971882;28;20079;-60
2023/12/31 03:21:42;;;;;;;14.73;7.90;;;0.40;99.90;;;;;;4972761;28;20039;-61
2023/12/31 03:24:08;;;;;;;14.00;6.78;;;0.40;99.90;;;;;;4972306;28;20074;-61
2023/12/31 03:26:36;;;;;;;16.98;7.68;;;0.40;99.90;;;;;;4973733;28;20031;-62
2023/12/31 03:29:02;;;;;;;15.93;7.07;;;0.40;99.90;;;;;;4966118;28;20039;-62
2023/12/31 03:31:29;;;;;;;12.68;6.70;;;0.40;99.90;;;;;;4967742;28;20519;-61
2023/12/31 03:33:56;;;;;;;13.65;6.97;;;0.30;99.90;;;;;;4970902;28;20046;-62
2023/12/31 03:36:24;;;;;;;18.75;7.03;;;0.30;99.90;;;;;;4955953;28;20042;-60
2023/12/31 03:38:51;;;;;;;13.05;5.70;;;0.30;99.90;;;;;;4971274;28;20089;-60
2023/12/31 03:41:18;;;;;;;13.30;6.20;;;0.30;99.90;;;;;;4971266;28;20069;-62
2023/12/31 03:43:44;;;;;;;11.35;6.03;;;0.30;99.90;;;;;;4972627;28;20043;-61
2023/12/31 03:46:11;;;;;;;12.00;6.63;;;0.30;99.90;;;;;;4970009;28;20072;-60
2023/12/31 03:48:38;;;;;;;12.75;6.55;;;0.30;99.90;;;;;;4973555;28;20392;-61
2023/12/31 03:51:05;;;;;;;12.52;6.30;;;0.30;99.90;;;;;;4970356;28;20131;-61
2023/12/31 03:53:32;;;;;;;14.50;6.22;;;0.30;99.90;;;;;;4971847;28;20074;-61
2023/12/31 03:56:00;;;;;;;13.50;7.32;;;0.30;99.90;;;;;;4970420;28;20046;-62
2023/12/31 03:58:27;;;;;;;15.57;6.65;;;0.30;99.90;;;;;;4955806;28;20046;-62
2023/12/31 04:00:54;;;;;;;16.00;6.95;;;0.30;99.90;;;;;;4971600;28;20078;-61
2023/12/31 04:03:21;;;;;;;16.13;6.95;;;0.20;99.90;;;;;;4972089;28;20057;-60
2023/12/31 04:05:48;;;;;;;12.40;6.88;;;0.20;99.90;;;;;;4971619;28;20050;-62
2023/12/31 04:08:14;;;;;;;15.25;6.53;;;0.20;99.90;;;;;;4973002;28;20039;-61
2023/12/31 04:10:41;;;;;;;15.68;7.47;;;0.10;99.90;;;;;;4972244;28;20071;-61
2023/12/31 04:13:09;;;;;;;14.43;7.55;;;0.10;99.90;;;;;;4972517;28;20062;-62
2023/12/31 04:15:37;;;;;;;16.05;7.72;;;0.10;99.90;;;;;;4971980;28;20051;-61
2023/12/31 04:18:04;;;;;;;11.32;5.47;;;0.00;99.90;;;;;;4970510;28;20049;-61
2023/12/31 04:20:31;;;;;;;16.38;6.38;;;0.10;99.90;;;;;;4964083;28;20089;-60
2023/12/31 04:22:58;;;;;;;16.02;7.03;;;0.10;99.90;;;;;;4972604;28;20492;-62
2023/12/31 04:25:24;;;;;;;13.40;7.40;;;0.10;99.90;;;;;;4954062;28;20061;-62
2023/12/31 04:27:52;;;;;;;13.45;6.47;;;0.10;99.90;;;;;;4971468;28;20058;-62
2023/12/31 04:30:18;;;;;;;14.52;6.50;;;0.00;99.90;;;;;;4972855;28;20444;-62
2023/12/31 04:32:45;;;;;;;14.82;6.80;;;0.00;99.90;;;;;;4971940;28;20039;-62
2023/12/31 04:35:12;;;;;;;13.32;6.88;;;-0.10;99.90;;;;;;4971676;28;20134;-62
2023/12/31 04:37:40;;;;;;;14.63;7.00;;;-0.20;99.90;;;;;;4971593;28;20046;-61
2023/12/31 04:40:07;;;;;;;15.05;7.18;;;-0.20;99.90;;;;;;4971696;28;20145;-60
2023/12/31 04:42:35;;;;;;;14.52;7.05;;;-0.20;99.90;;;;;;4971123;28;20046;-62
2023/12/31 04:45:07;;;;;;;13.35;6.72;;;-0.20;99.90;;;;;;4971344;28;20047;-62
2023/12/31 04:47:37;;;;;;;10.05;5.65;;;-0.20;99.90;;;;;;4963738;28;20042;-61
2023/12/31 04:50:05;;;;;;;12.35;5.80;;;-0.10;99.90;;;;;;4970998;28;20471;-61
2023/12/31 04:52:32;;;;;;;11.80;5.70;;;-0.10;99.90;;;;;;4954859;28;20034;-60
2023/12/31 04:54:59;;;;;;;13.23;6.68;;;-0.10;99.90;;;;;;4969864;28;20460;-62
2023/12/31 04:57:26;;;;;;;12.77;5.78;;;-0.10;99.90;;;;;;4970691;28;20424;-62
2023/12/31 04:59:53;;;;;;;10.10;5.47;;;-0.10;99.90;;;;;;4970801;28;20061;-61
2023/12/31 05:02:21;;;;;;;9.35;5.68;;;-0.20;99.90;;;;;;4972412;28;20408;-61
2023/12/31 05:04:48;;;;;;;15.18;6.28;;;-0.20;99.90;;;;;;4971741;28;20042;-62
2023/12/31 05:07:14;;;;;;;10.75;5.25;;;-0.30;99.90;;;;;;4971600;28;20105;-62
2023/12/31 05:09:41;;;;;;;12.90;6.20;;;-0.30;99.90;;;;;;4969073;28;20567;-62
2023/12/31 05:12:08;;;;;;;12.13;4.88;;;-0.30;99.90;;;;;;4968667;28;20058;-62
2023/12/31 05:14:35;;;;;;;12.23;5.68;;;-0.30;99.90;;;;;;4971502;28;20042;-62
2023/12/31 05:17:02;;;;;;;10.70;5.13;;;-0.30;99.90;;;;;;4972200;28;20134;-62
2023/12/31 05:19:29;;;;;;;;;;;-0.30;99.90;;;;;;4971833;28;20050;-62
2023/12/31 05:21:55;;;;;;;11.63;5.68;;;-0.30;99.90;;;;;;4970128;28;19926;-62
2023/12/31 05:24:22;;;;;;;8.95;3.97;;;-0.30;99.90;;;;;;4970829;28;20419;-62
2023/12/31 05:26:49;;;;;;;11.23;5.63;;;-0.30;99.90;;;;;;4970749;28;20117;-61
2023/12/31 05:29:16;;;;;;;11.73;5.57;;;-0.30;99.90;;;;;;4971610;28;20054;-62
2023/12/31 05:31:42;;;;;;;15.35;6.97;;;-0.30;99.90;;;;;;4969513;28;20055;-62
2023/12/31 05:34:09;;;;;;;14.88;6.82;;;-0.30;99.90;;;;;;4972230;28;20627;-61
2023/12/31 05:36:36;;;;;;;16.38;6.50;;;-0.30;99.90;;;;;;4971020;28;20530;-61
2023/12/31 05:39:03;;;;;;;14.48;6.65;;;-0.30;99.90;;;;;;4971715;28;20051;-61
2023/12/31 05:41:30;;;;;;;12.10;6.47;;;-0.30;99.90;;;;;;4969340;28;20125;-60
2023/12/31 05:43:56;;;;;;;10.32;5.93;;;-0.30;99.90;;;;;;4971989;28;20053;-62
2023/12/31 05:46:23;;;;;;;14.52;6.25;;;-0.30;99.90;;;;;;4970547;28;20046;-60
2023/12/31 05:48:50;;;;;;;16.83;7.93;;;-0.40;99.90;;;;;;4970201;28;20459;-61
2023/12/31 05:51:17;;;;;;;19.55;8.18;;;-0.40;99.90;;;;;;4971835;28;20508;-61
2023/12/31 05:53:44;;;;;;;15.60;7.40;;;-0.40;99.90;;;;;;4970855;28;20427;-61
2023/12/31 05:56:10;;;;;;;12.85;5.75;;;-0.40;99.90;;;;;;4972127;28;20113;-60
2023/12/31 05:58:37;;;;;;;11.32;5.05;;;-0.40;99.90;;;;;;4969458;28;20507;-60
2023/12/31 06:01:05;;;;;;;16.05;5.47;;;-0.40;99.90;;;;;;4970674;28;20053;-61
2023/12/31 06:03:32;;;;;;;13.32;6.50;;;-0.50;99.90;;;;;;4953213;28;20443;-61
2023/12/31 06:05:59;;;;;;;12.32;6.15;;;-0.40;99.90;;;;;;4971455;28;20223;-62
2023/12/31 06:08:26;;;;;;;15.15;5.82;;;-0.50;99.90;;;;;;4969627;28;20058;-62
2023/12/31 06:10:54;;;;;;;10.10;4.43;;;-0.50;99.90;;;;;;4971969;28;20039;-62
2023/12/31 06:13:21;;;;;;;16.92;6.93;;;-0.50;99.90;;;;;;4970528;28;20046;-62
2023/12/31 06:15:48;;;;;;;11.80;6.30;;;-0.50;99.90;;;;;;4971590;28;20046;-59
2023/12/31 06:18:15;;;;;;;16.20;6.65;;;-0.40;99.90;;;;;;4968986;28;20043;-60
2023/12/31 06:20:42;;;;;;;12.63;5.88;;;-0.50;99.90;;;;;;4965883;28;20535;-61
2023/12/31 06:23:09;;;;;;;15.93;6.47;;;-0.40;99.90;;;;;;4957409;28;20039;-60
2023/12/31 06:25:36;;;;;;;11.52;6.25;;;-0.40;99.90;;;;;;4974654;28;20260;-58
2023/12/31 06:28:03;;;;;;;14.18;5.70;;;-0.50;99.90;;;;;;4974484;28;20039;-59
2023/12/31 06:30:30;;;;;;;10.73;5.90;;;-0.50;99.90;;;;;;4973345;28;20051;-61
2023/12/31 06:32:57;;;;;;;11.27;6.78;;;-0.50;99.90;;;;;;4975019;28;20155;-62
2023/12/31 06:35:24;;;;;;;15.52;6.70;;;-0.50;99.90;;;;;;4974648;28;20035;-60
2023/12/31 06:37:50;;;;;;;18.25;6.72;;;-0.50;99.90;;;;;;4974704;28;20504;-59
2023/12/31 06:40:17;;;;;;;15.10;6.70;;;-0.60;99.90;;;;;;4971132;28;20488;-61
2023/12/31 06:42:44;;;;;;;12.48;5.78;;;-0.60;99.90;;;;;;4973407;28;20038;-59
2023/12/31 06:45:11;;;;;;;10.77;5.70;;;-0.60;99.90;;;;;;4974659;28;20051;-60
2023/12/31 06:47:38;;;;;;;14.63;6.43;;;-0.50;99.90;;;;;;4970634;28;20047;-62
2023/12/31 06:50:06;;;;;;;13.07;5.68;;;-0.40;99.90;;;;;;4957565;28;20134;-61
2023/12/31 06:52:33;;;;;;;12.35;5.65;;;-0.40;99.90;;;;;;4971848;28;20134;-61
2023/12/31 06:54:59;;;;;;;11.57;5.88;;;-0.30;99.90;;;;;;4973460;28;20511;-60
2023/12/31 06:57:26;;;;;;;12.70;5.78;;;-0.30;99.90;;;;;;4973564;28;20053;-61
2023/12/31 06:59:53;;;;;;;13.05;5.45;;;-0.30;99.90;;;;;;4974051;28;20041;-62
2023/12/31 07:02:20;;;;;;;13.27;6.28;;;-0.30;99.90;;;;;;4968863;28;20126;-61
2023/12/31 07:04:47;;;;;;;14.45;6.30;;;-0.30;99.90;;;;;;4964986;28;20385;-60
2023/12/31 07:07:14;;;;;;;11.85;5.50;;;-0.20;99.90;;;;;;4973135;28;20055;-62
2023/12/31 07:09:42;;;;;;;17.88;10.10;;;-0.30;99.90;;;;;;4974133;28;20499;-62
2023/12/31 07:12:09;;;;;;;19.00;9.23;;;-0.30;99.90;;;;;;4973189;28;20105;-60
2023/12/31 07:14:35;;;;;;;17.20;8.10;;;-0.30;99.90;;;;;;4972698;28;20046;-62
2023/12/31 07:17:02;;;;;;;11.80;5.50;;;-0.30;99.90;;;;;;4974036;28;20480;-62
2023/12/31 07:19:29;;;;;;;23.17;9.77;;;-0.30;99.90;;;;;;4972993;28;20042;-62
2023/12/31 07:21:56;;;;;;;18.30;8.85;;;-0.30;99.90;;;;;;4974359;28;20548;-62
2023/12/31 07:24:22;;;;;;;13.15;6.43;;;-0.30;99.90;;;;;;4973913;28;20115;-62
2023/12/31 07:26:49;;;;;;;14.88;9.13;;;-0.30;99.90;;;;;;4969856;28;20043;-62
2023/12/31 07:29:16;;;;;;;22.92;11.07;;;-0.30;99.90;;;;;;4971278;28;20476;-62
2023/12/31 07:31:43;;;;;;;16.45;9.00;;;-0.20;99.90;;;;;;4971074;28;20847;-60
2023/12/31 07:34:10;;;;;;;16.30;8.77;;;-0.10;99.90;;;;;;4973808;28;20547;-62
2023/12/31 07:36:37;;;;;;;14.73;7.82;;;-0.10;99.90;;;;;;4972412;28;20042;-62
2023/12/31 07:39:04;;;;;;;12.52;6.00;;;-0.10;99.90;;;;;;4973478;28;20043;-62
2023/12/31 07:41:31;;;;;;;13.23;6.00;;;-0.10;99.90;;;;;;4971572;28;20051;-62
2023/12/31 07:43:58;;;;;;;11.45;6.43;;;-0.10;99.90;;;;;;4973370;28;20049;-62
2023/12/31 07:46:25;;;;;;;9.70;5.88;;;-0.10;99.90;;;;;;4972715;28;20058;-60
2023/12/31 07:48:52;;;;;;;15.10;7.07;;;0.00;99.90;;;;;;4973335;28;20080;-62
2023/12/31 07:51:19;;;;;;;;;;;0.00;99.90;;;;;;4974112;28;20459;-62
2023/12/31 07:53:46;;;;;;;13.77;6.18;;;0.10;99.90;;;;;;4973182;28;20340;-62
2023/12/31 07:56:13;;;;;;;8.82;5.22;;;0.10;99.90;;;;;;4978079;28;20407;-62
2023/12/31 07:58:40;;;;;;;15.90;7.30;;;0.10;99.90;;;;;;4974884;28;20038;-62
2023/12/31 08:01:07;;;;;;;16.30;6.20;;;0.10;99.90;;;;;;4973385;28;20039;-62
2023/12/31 08:03:34;;;;;;;14.10;5.85;;;0.10;99.90;;;;;;4971822;28;20050;-62
2023/12/31 08:06:02;;;;;;;12.20;5.43;;;0.10;99.90;;;;;;4973470;28;20046;-62
2023/12/31 08:08:29;;;;;;;12.20;6.10;;;0.20;99.90;;;;;;4972448;28;20065;-61
2023/12/31 08:10:59;;;;;;;17.48;6.68;;;0.20;99.90;;;;;;4972516;28;20143;-62
2023/12/31 08:13:26;;;;;;;14.18;6.82;;;0.20;99.90;;;;;;4972584;28;20101;-62
2023/12/31 08:15:53;;;;;;;14.82;6.65;;;0.30;99.90;;;;;;4971867;28;20520;-61
2023/12/31 08:18:20;;;;;;;14.07;6.30;;;0.40;99.90;;;;;;4972833;28;20046;-62
2023/12/31 08:20:47;;;;;;;17.73;8.25;;;0.40;99.90;;;;;;4969572;28;20141;-60
2023/12/31 08:23:14;;;;;;;18.92;10.38;;;0.50;99.90;;;;;;4969736;28;20074;-62
2023/12/31 08:25:41;;;;;;;22.95;11.30;;;0.60;99.90;;;;;;4970646;28;20058;-62
2023/12/31 08:28:08;;;;;;;;;;;0.70;99.90;;;;;;4972179;28;20054;-61
2023/12/31 08:30:35;;;;;;;19.00;9.57;;;0.70;99.90;;;;;;4970674;28;19926;-62
2023/12/31 08:33:02;;;;;;;20.65;8.25;;;0.70;99.90;;;;;;4972920;28;20061;-61
2023/12/31 08:35:30;;;;;;;20.17;9.52;;;0.70;99.90;;;;;;4972011;28;20464;-61
2023/12/31 08:37:57;;;;;;;22.02;10.40;;;0.60;99.90;;;;;;4971427;28;20114;-62
2023/12/31 08:40:23;;;;;;;15.18;8.45;;;0.70;99.90;;;;;;4971137;28;20117;-62
2023/12/31 08:42:50;;;;;;;14.27;6.82;;;0.70;99.90;;;;;;4971520;28;20046;-62
2023/12/31 08:45:17;;;;;;;13.63;6.90;;;0.80;99.90;;;;;;4972531;28;20531;-62
2023/12/31 08:47:44;;;;;;;25.15;10.40;;;0.80;99.90;;;;;;4971981;28;20210;-60
2023/12/31 08:50:11;;;;;;;21.52;8.50;;;0.90;99.90;;;;;;4972638;28;20051;-62
2023/12/31 08:52:42;;;;;;;17.35;8.35;;;0.90;99.90;;;;;;4970553;28;20476;-62
2023/12/31 08:55:09;;;;;;;15.93;8.13;;;1.00;99.90;;;;;;4971976;28;20395;-61
2023/12/31 08:57:42;;;;;;;14.30;6.18;;;1.10;99.90;;;;;;4973622;28;20129;-62
2023/12/31 09:00:09;;;;;;;15.13;7.35;;;1.20;99.90;;;;;;4966855;28;20038;-61
2023/12/31 09:02:36;;;;;;;;;;;1.30;99.90;;;;;;4973118;28;20051;-61
2023/12/31 09:05:04;;;;;;;10.65;5.38;;;1.50;99.90;;;;;;4971904;28;19961;-59
2023/12/31 09:07:35;;;;;;;12.80;6.35;;;1.60;99.90;;;;;;4972933;28;20404;-61
2023/12/31 09:10:07;;;;;;;12.15;6.20;;;1.60;99.90;;;;;;4965045;28;20039;-59
2023/12/31 09:12:34;;;;;;;13.25;6.03;;;1.70;99.90;;;;;;4969663;28;20549;-62
2023/12/31 09:15:00;;;;;;;13.52;5.43;;;1.70;99.90;;;;;;4972378;28;20042;-62
2023/12/31 09:17:27;;;;;;;15.13;6.47;;;1.60;99.90;;;;;;4970152;28;20146;-62
2023/12/31 09:19:57;;;;;;;11.10;6.80;;;1.60;99.90;;;;;;4972511;28;20050;-62
2023/12/31 09:22:25;;;;;;;17.85;7.22;;;1.60;99.90;;;;;;4971405;28;20061;-61
2023/12/31 09:24:52;;;;;;;12.00;6.43;;;1.80;99.90;;;;;;4972531;28;20423;-62
2023/12/31 09:27:19;;;;;;;13.82;6.43;;;1.90;99.90;;;;;;4972398;28;20043;-61
2023/12/31 09:29:46;;;;;;;16.40;5.80;;;2.00;99.90;;;;;;4971110;28;20071;-62
2023/12/31 09:32:14;;;;;;;16.13;6.78;;;2.10;99.90;;;;;;4972095;28;20051;-61
2023/12/31 09:34:40;;;;;;;;;;;2.40;99.90;;;;;;4972508;28;20504;-61
2023/12/31 09:37:08;;;;;;;18.60;7.88;;;2.60;99.90;;;;;;4975377;28;19929;-62
2023/12/31 09:39:35;;;;;;;12.07;6.25;;;2.70;99.90;;;;;;4975715;28;20042;-62
2023/12/31 09:42:10;;;;;;;16.60;6.40;;;2.80;99.90;;;;;;4971921;28;20495;-62
2023/12/31 09:44:37;;;;;;;11.48;5.47;;;2.80;99.90;;;;;;4972528;28;20547;-61
2023/12/31 09:47:09;;;;;;;12.48;6.80;;;2.90;99.90;;;;;;4967065;28;20103;-61
2023/12/31 09:49:41;;;;;;;11.15;5.50;;;3.10;99.90;;;;;;4972379;28;20102;-62
2023/12/31 09:52:09;;;;;;;9.73;5.07;;;3.10;99.90;;;;;;4959132;28;20053;-62
2023/12/31 09:54:38;;;;;;;11.20;5.38;;;3.10;99.90;;;;;;4975420;28;20496;-61
2023/12/31 09:57:06;;;;;;;7.90;4.78;;;3.10;99.90;;;;;;4973122;28;20039;-61
2023/12/31 09:59:33;;;;;;;9.90;4.47;;;3.10;99.90;;;;;;4975788;28;20043;-60
2023/12/31 10:02:04;;;;;;;9.23;4.78;;;3.20;99.90;;;;;;4971975;28;20057;-62
2023/12/31 10:04:31;;;;;;;13.38;5.72;;;3.30;99.90;;;;;;4963455;28;20050;-62
2023/12/31 10:06:59;;;;;;;12.35;5.90;;;3.40;99.90;;;;;;4966512;28;20411;-62
2023/12/31 10:09:30;;;;;;;14.27;7.32;;;3.60;99.90;;;;;;4975802;28;20443;-62
2023/12/31 10:12:00;;;;;;;14.40;7.95;;;3.70;99.90;;;;;;4972223;28;20066;-61
2023/12/31 10:14:28;;;;;;;20.13;8.73;;;3.70;99.90;;;;;;4967991;28;20113;-62
2023/12/31 10:16:55;;;;;;;;;;;3.70;99.90;;;;;;4974737;28;20053;-62
2023/12/31 10:19:23;;;;;;;15.27;8.32;;;3.60;99.90;;;;;;4974875;28;19933;-62
2023/12/31 10:21:50;;;;;;;15.15;7.03;;;3.70;99.90;;;;;;4972778;28;20570;-62
2023/12/31 10:24:30;;;;;;;15.82;6.88;;;3.70;99.90;;;;;;4974997;28;20050;-62
2023/12/31 10:26:57;;;;;;;30.63;12.23;;;3.70;99.90;;;;;;4974614;28;20039;-62
2023/12/31 10:29:24;;;;;;;13.32;6.43;;;3.80;99.90;;;;;;4972880;28;20074;-61
2023/12/31 10:31:52;;;;;;;12.75;6.88;;;3.90;99.90;;;;;;4974649;28;20049;-60
2023/12/31 10:34:19;;;;;;;11.30;5.30;;;4.00;99.90;;;;;;4965261;28;20776;-62
2023/12/31 10:36:47;;;;;;;10.25;5.32;;;4.00;99.90;;;;;;4973770;28;20126;-62
2023/12/31 10:39:29;;;;;;;11.48;5.15;;;4.10;99.90;;;;;;4969316;28;20054;-62
2023/12/31 10:42:00;;;;;;;15.55;6.38;;;4.20;99.90;;;;;;4970683;28;20046;-62
2023/12/31 10:44:27;;;;;;;9.85;4.88;;;4.40;99.90;;;;;;4967022;28;20045;-63
2023/12/31 10:46:58;;;;;;;9.27;4.20;;;4.60;99.90;;;;;;4968514;28;20443;-60
2023/12/31 10:49:29;;;;;;;7.25;3.97;;;4.80;99.90;;;;;;4964799;28;20035;-62
2023/12/31 10:51:59;;;;;;;9.13;4.68;;;5.00;99.90;;;;;;4969603;28;20042;-62
2023/12/31 10:54:45;;;;;;;13.73;5.63;;;5.30;99.90;;;;;;4963753;28;20054;-62
2023/12/31 10:57:14;;;;;;;9.60;4.30;;;5.40;99.90;;;;;;4967536;28;20054;-62
2023/12/31 10:59:44;;;;;;;6.38;3.35;;;5.50;99.90;;;;;;4970732;28;20043;-62
2023/12/31 11:02:16;;;;;;;9.57;3.90;;;5.50;99.90;;;;;;4968993;28;20554;-62
2023/12/31 11:04:47;;;;;;;6.82;3.50;;;5.50;99.90;;;;;;4962649;28;20398;-62
2023/12/31 11:07:18;;;;;;;7.22;4.00;;;5.60;99.90;;;;;;4968028;28;20035;-62
2023/12/31 11:09:47;;;;;;;7.53;3.60;;;5.80;99.90;;;;;;4968682;28;20411;-62
2023/12/31 11:12:17;;;;;;;5.35;3.08;;;5.90;99.90;;;;;;4964566;28;20039;-61
2023/12/31 11:14:56;;;;;;;8.02;4.05;;;6.00;99.90;;;;;;4964383;28;20561;-62
2023/12/31 11:17:48;;;;;;;8.43;4.13;;;6.00;99.90;;;;;;4967283;28;20050;-62
2023/12/31 11:20:39;;;;;;;9.05;5.00;;;6.00;99.90;;;;;;4970406;28;20488;-62
2023/12/31 11:23:23;;;;;;;9.65;4.38;;;6.00;99.90;;;;;;4973415;28;20043;-62
2023/12/31 11:25:50;;;;;;;6.40;3.70;;;6.00;99.90;;;;;;4973031;28;20053;-60
2023/12/31 11:28:18;;;;;;;9.57;4.45;;;5.90;99.90;;;;;;4971217;28;20049;-62
2023/12/31 11:31:05;;;;;;;7.80;4.97;;;6.00;99.90;;;;;;4968212;28;20043;-61
2023/12/31 11:33:33;;;;;;;10.85;5.28;;;6.00;99.90;;;;;;4953980;28;20138;-62
2023/12/31 11:36:14;;;;;;;7.35;4.20;;;6.00;99.90;;;;;;4963935;28;20070;-63
2023/12/31 11:38:56;;;;;;;8.80;4.30;;;6.00;99.90;;;;;;4964272;28;20526;-62
2023/12/31 11:41:32;;;;;;;7.70;3.85;;;6.00;99.90;;;;;;4962717;28;20063;-63
2023/12/31 11:43:59;;;;;;;10.63;4.78;;;5.90;99.90;;;;;;4965502;28;20038;-62
2023/12/31 11:46:33;;;;;;;8.82;4.03;;;6.00;99.90;;;;;;4965951;28;20034;-62
2023/12/31 11:49:01;;;;;;;10.63;3.50;;;6.00;99.90;;;;;;4960896;28;20118;-62
2023/12/31 11:51:47;;;;;;;7.68;4.03;;;6.10;99.90;;;;;;4962087;28;20447;-62
2023/12/31 11:54:19;;;;;;;5.68;3.60;;;6.30;99.90;;;;;;4965080;28;20031;-61
2023/12/31 11:56:46;;;;;;;10.30;3.90;;;6.40;99.90;;;;;;4965715;28;20075;-62
2023/12/31 11:59:13;;;;;;;8.52;3.80;;;6.40;99.90;;;;;;4963014;28;20049;-63
2023/12/31 12:01:41;;;;;;;6.50;3.50;;;6.50;99.90;;;;;;4963169;28;20499;-63
2023/12/31 12:04:07;;;;;;;5.82;3.65;;;6.50;99.90;;;;;;4964603;28;20032;-61
2023/12/31 12:06:35;;;;;;;6.88;3.90;;;6.60;99.90;;;;;;4973593;28;20127;-63
2023/12/31 12:09:02;;;;;;;;;;;6.60;99.90;;;;;;4972801;28;20039;-63
2023/12/31 12:11:28;;;;;;;8.55;3.00;;;6.60;99.90;;;;;;4973399;28;20298;-61
2023/12/31 12:13:55;;;;;;;5.50;3.03;;;6.60;99.90;;;;;;4972374;28;20117;-62
2023/12/31 12:16:22;;;;;;;6.60;4.07;;;6.70;99.90;;;;;;4966284;28;20522;-63
2023/12/31 12:19:03;;;;;;;10.63;3.95;;;6.80;99.90;;;;;;4967607;28;20057;-63
2023/12/31 12:21:30;;;;;;;7.28;3.78;;;6.80;99.90;;;;;;4966915;28;20078;-63
2023/12/31 12:23:57;;;;;;;5.93;2.92;;;6.90;99.90;;;;;;4972246;28;20042;-63
2023/12/31 12:26:25;;;;;;;7.18;3.20;;;6.90;99.90;;;;;;4967537;28;20042;-63
2023/12/31 12:28:55;;;;;;;6.50;3.35;;;6.90;99.90;;;;;;4968447;28;20081;-63
2023/12/31 12:31:23;;;;;;;5.90;3.28;;;6.90;99.90;;;;;;4966293;28;20077;-63
2023/12/31 12:33:53;;;;;;;;;;;6.90;99.90;;;;;;4963857;28;20389;-61
2023/12/31 12:36:21;;;;;;;6.10;3.13;;;6.90;99.90;;;;;;4962555;28;19976;-63
2023/12/31 12:38:48;;;;;;;7.45;3.53;;;7.00;99.90;;;;;;4964493;28;20102;-63
2023/12/31 12:41:19;;;;;;;;;;;7.00;99.90;;;;;;4967131;28;20066;-63
2023/12/31 12:43:50;;;;;;;5.63;2.92;;;7.10;99.90;;;;;;4968930;28;19922;-63
2023/12/31 12:46:17;;;;;;;6.93;2.92;;;7.10;99.90;;;;;;4972467;28;20042;-63
2023/12/31 12:48:48;;;;;;;6.95;2.92;;;7.20;99.90;;;;;;4965407;28;20050;-63
2023/12/31 12:51:15;;;;;;;6.25;2.70;;;7.20;99.90;;;;;;4966274;28;20051;-63
2023/12/31 12:53:42;;;;;;;6.85;2.75;;;7.20;99.90;;;;;;4963535;28;20046;-62
2023/12/31 12:56:09;;;;;;;4.88;2.85;;;7.20;99.90;;;;;;4964493;28;20497;-63